Boise Air Terminal/Gowen field
KBOI : now visible

Airfield :











YOU CAN JOIN US ON...

 
LOGIN :

Register | Disclaimer

   EN    FR    IT 

 









Legend :    VFR   Marginal VFR   IFR   Intensive IFR   Very Intensive IFR
Visi :
Ceiling :
>= 8 km
>= 3000ft
5 to 8 km
1000 to 3000 ft
1500m to 5 km
500 to 1000 ft
800 to 1500m
200 to 500 ft
< 800m
< 200 ft
Symbols :   Thunderstorms  Fog  Heavy snow  Heavy precipitations  Wind > 20 kt






- Airport Elevation : 2871 ft
- IATA code : BOI


KBOI - Boise Air Terminal/Gowen field

CURRENT METAR :
  • 080753Z 12009KT 10SM OVC110 07/04 A2980 RMK AO2 SLP090 T00670039

EXPIRED METARs :
  • 080653Z 16007KT 10SM BKN047 OVC070 08/03 A2981 RMK AO2 SLP091 T00830033 401060028
  • 080553Z 18007KT 10SM BKN055 08/03 A2979 RMK AO2 SLP087 60001 T00830033 10094 20078 55004

TAF KBOI
Valid from the 08 at 06:00 until the 09 at 06:00 UTC


080538Z 0806/0906 14009KT P6SM VCSH BKN040 OVC060
FM081200 VRB04KT P6SM VCSH OVC025
FM081900 31007KT P6SM BKN050
FM090100 32006KT P6SM SCT200



MET'MAP, your aeronautical weather chart ! - Copyright ORBIFLY December 2007 - Disclaimer

ORBIFLY MET'MAP TEAM :

Programming & Development : Alexandra Zaïnal
Concept & original design : Baudouin d'Aumeries
Assistance for programming : Marc-Olivier Méhu
Technical & hardware support : Manuel Goepfert

Contact : metmap@orbifly.com




SOURCES & CREDITS :

   NOAA       Earth
Advisory